Pagrindinis puslapis
METAR-TAF:

METAR-TAF

Oro uostai :

Kuopijas, Suomija

platuma: 63-01N, ilguma: 027-48E, Aukštis: 98 m

Dabartinis oras

Ataskaita buvo paskelbta 15 minutes, ne 10:50 UTC
Vėjas 10 kt iš Vakarų, svyruoja nuo Pietvakarių ir Vakarų/Šiaurės Vakarų
Temperatūra 17°C
Drėgmė 63%
Slėgis 1018 hPa
Matomumas 10 km arba daugiau
Su prošvaistėmis ne aukštis 2700 ft

METAR: EFKU 221050Z 26010KT 220V290 9999 BKN027 17/10 Q1018

Laikas: 14:05 (11:05 UTC)

Prognozė

Ataskaita buvo paskelbta 2 valandos ir 36 minutes, ne 08:29 UTC
Prognozė galioja nuo 22 metu 09 UTC su 23 metu 09 UTC
Vėjas 9 kt iš Vakarų/Pietvakarių
Matomumas 10 km arba daugiau
Su prošvaistėmis ne aukštis 2500 ft
Laikinai
nuo 22 metu 09 UTC su 22 metu 15 UTC
Išsisklaidę debesys ne aukštis 3000 ft, Liūtiniai kamuoliniai debesys.
lietus
Tikimybė 30%
nuo 22 metu 10 UTC su 22 metu 12 UTC
perkūnija
Tikimybė 30%
nuo 23 metu 00 UTC su 23 metu 04 UTC
Matomumas: 2000 m
Rūkas lopais

TAF: EFKU 220829Z 2209/2309 25009KT 9999 BKN025 TEMPO 2209/2215 -SHRA SCT030CB PROB30 2210/2212 TS PROB30 2300/2304 2000 BCFG

Orai ataskaitas ir orų prognozės (METAR, TAF).

turimą stotys yra geltonos ir raudonos taškus žemėlapyje.

Perkelti pele per norėdami pamatyti stoties vardą.

Tada spustelėkite, norėdami matyti oro stebėjimo ir prognozės.

Norėdami pakeisti žemėlapį: spustelėkite ant žalios mygtukų su juodo kryžiaus žemyn,; žalią mygtuką su brūkšneliu, jei norite nutolinti; arba žalių rodyklių gretimoms žemėlapius.


METAR-TAF: